sensor_id;sensor_type;location;lat;lon;timestamp;pressure;altitude;pressure_sealevel;temperature;humidity
49473;BME280;73594;50.944;6.950;2023-12-07T00:02:23;101530.13;;;1.06;100.00
49473;BME280;73594;50.944;6.950;2023-12-07T00:04:48;101526.28;;;1.09;100.00
49473;BME280;73594;50.944;6.950;2023-12-07T00:07:13;101527.63;;;1.13;100.00
49473;BME280;73594;50.944;6.950;2023-12-07T00:09:39;101525.78;;;1.13;100.00
49473;BME280;73594;50.944;6.950;2023-12-07T00:12:05;101530.09;;;1.14;100.00
49473;BME280;73594;50.944;6.950;2023-12-07T00:14:30;101529.44;;;1.12;100.00
49473;BME280;73594;50.944;6.950;2023-12-07T00:16:55;101522.28;;;1.13;100.00
49473;BME280;73594;50.944;6.950;2023-12-07T00:19:21;101522.94;;;1.15;100.00
49473;BME280;73594;50.944;6.950;2023-12-07T00:21:46;101527.44;;;1.14;100.00
49473;BME280;73594;50.944;6.950;2023-12-07T00:24:11;101526.28;;;1.09;100.00
49473;BME280;73594;50.944;6.950;2023-12-07T00:26:37;101524.78;;;1.06;100.00
49473;BME280;73594;50.944;6.950;2023-12-07T00:29:04;101519.66;;;1.05;100.00
49473;BME280;73594;50.944;6.950;2023-12-07T00:31:30;101526.16;;;1.02;100.00
49473;BME280;73594;50.944;6.950;2023-12-07T00:33:55;101522.66;;;1.02;100.00
49473;BME280;73594;50.944;6.950;2023-12-07T00:36:21;101522.19;;;0.98;100.00
49473;BME280;73594;50.944;6.950;2023-12-07T00:38:46;101526.84;;;0.96;100.00
49473;BME280;73594;50.944;6.950;2023-12-07T00:41:12;101522.88;;;0.92;100.00
49473;BME280;73594;50.944;6.950;2023-12-07T00:43:37;101520.56;;;0.89;100.00
49473;BME280;73594;50.944;6.950;2023-12-07T00:46:03;101518.09;;;0.87;100.00
49473;BME280;73594;50.944;6.950;2023-12-07T00:48:28;101523.75;;;0.84;100.00
49473;BME280;73594;50.944;6.950;2023-12-07T00:50:53;101525.59;;;0.84;100.00
49473;BME280;73594;50.944;6.950;2023-12-07T00:53:18;101517.63;;;0.84;100.00
49473;BME280;73594;50.944;6.950;2023-12-07T00:55:44;101527.78;;;0.80;100.00
49473;BME280;73594;50.944;6.950;2023-12-07T00:58:09;101524.28;;;0.80;100.00
49473;BME280;73594;50.944;6.950;2023-12-07T01:00:34;101524.94;;;0.82;100.00
49473;BME280;73594;50.944;6.950;2023-12-07T01:03:00;101539.72;;;0.84;100.00
49473;BME280;73594;50.944;6.950;2023-12-07T01:05:25;101534.06;;;0.87;100.00
49473;BME280;73594;50.944;6.950;2023-12-07T01:07:52;101532.75;;;0.83;100.00
49473;BME280;73594;50.944;6.950;2023-12-07T01:10:17;101533.28;;;0.79;100.00
49473;BME280;73594;50.944;6.950;2023-12-07T01:12:42;101533.94;;;0.81;100.00
49473;BME280;73594;50.944;6.950;2023-12-07T01:15:08;101535.75;;;0.80;100.00
49473;BME280;73594;50.944;6.950;2023-12-07T01:17:33;101535.47;;;0.75;100.00
49473;BME280;73594;50.944;6.950;2023-12-07T01:19:59;101540.25;;;0.72;100.00
49473;BME280;73594;50.944;6.950;2023-12-07T01:22:25;101536.78;;;0.71;100.00
49473;BME280;73594;50.944;6.950;2023-12-07T01:24:50;101540.63;;;0.69;100.00
49473;BME280;73594;50.944;6.950;2023-12-07T01:27:15;101536.28;;;0.68;100.00
49473;BME280;73594;50.944;6.950;2023-12-07T01:29:41;101542.97;;;0.63;100.00
49473;BME280;73594;50.944;6.950;2023-12-07T01:32:06;101540.81;;;0.59;100.00
49473;BME280;73594;50.944;6.950;2023-12-07T01:34:32;101534.00;;;0.56;100.00
49473;BME280;73594;50.944;6.950;2023-12-07T01:37:00;101542.00;;;0.56;100.00
49473;BME280;73594;50.944;6.950;2023-12-07T01:39:26;101548.31;;;0.55;100.00
49473;BME280;73594;50.944;6.950;2023-12-07T01:41:51;101547.66;;;0.53;100.00
49473;BME280;73594;50.944;6.950;2023-12-07T01:44:16;101545.19;;;0.52;100.00
49473;BME280;73594;50.944;6.950;2023-12-07T01:46:42;101551.50;;;0.51;100.00
49473;BME280;73594;50.944;6.950;2023-12-07T01:49:08;101545.53;;;0.49;100.00
49473;BME280;73594;50.944;6.950;2023-12-07T01:51:34;101549.34;;;0.46;100.00
49473;BME280;73594;50.944;6.950;2023-12-07T01:54:00;101550.34;;;0.45;100.00
49473;BME280;73594;50.944;6.950;2023-12-07T01:56:26;101555.00;;;0.43;100.00
49473;BME280;73594;50.944;6.950;2023-12-07T01:58:52;101557.50;;;0.45;100.00
49473;BME280;73594;50.944;6.950;2023-12-07T02:01:18;101559.34;;;0.44;100.00
49473;BME280;73594;50.944;6.950;2023-12-07T02:03:43;101561.00;;;0.45;100.00
49473;BME280;73594;50.944;6.950;2023-12-07T02:06:09;101567.66;;;0.41;100.00
49473;BME280;73594;50.944;6.950;2023-12-07T02:08:36;101564.50;;;0.38;100.00
49473;BME280;73594;50.944;6.950;2023-12-07T02:11:01;101560.16;;;0.37;100.00
49473;BME280;73594;50.944;6.950;2023-12-07T02:13:27;101560.16;;;0.37;100.00
49473;BME280;73594;50.944;6.950;2023-12-07T02:15:55;101570.78;;;0.37;100.00
49473;BME280;73594;50.944;6.950;2023-12-07T02:18:36;101565.34;;;0.38;100.00
49473;BME280;73594;50.944;6.950;2023-12-07T02:23:32;101570.66;;;0.38;100.00
49473;BME280;73594;50.944;6.950;2023-12-07T02:29:20;101578.78;;;0.37;100.00
49473;BME280;73594;50.944;6.950;2023-12-07T02:31:46;101580.47;;;0.38;100.00
49473;BME280;73594;50.944;6.950;2023-12-07T02:34:11;101582.44;;;0.36;100.00
49473;BME280;73594;50.944;6.950;2023-12-07T02:36:38;101580.13;;;0.32;100.00
49473;BME280;73594;50.944;6.950;2023-12-07T02:39:05;101585.59;;;0.31;100.00
49473;BME280;73594;50.944;6.950;2023-12-07T02:41:31;101580.28;;;0.31;100.00
49473;BME280;73594;50.944;6.950;2023-12-07T02:43:57;101584.59;;;0.32;100.00
49473;BME280;73594;50.944;6.950;2023-12-07T02:46:23;101579.13;;;0.34;100.00
49473;BME280;73594;50.944;6.950;2023-12-07T02:48:49;101585.78;;;0.38;100.00
49473;BME280;73594;50.944;6.950;2023-12-07T02:51:14;101583.94;;;0.38;100.00
49473;BME280;73594;50.944;6.950;2023-12-07T02:53:40;101568.66;;;0.40;100.00
49473;BME280;73594;50.944;6.950;2023-12-07T02:56:05;101564.16;;;0.41;100.00
49473;BME280;73594;50.944;6.950;2023-12-07T02:58:31;101558.69;;;0.42;100.00
49473;BME280;73594;50.944;6.950;2023-12-07T03:00:56;101562.16;;;0.43;100.00
49473;BME280;73594;50.944;6.950;2023-12-07T03:03:24;101559.50;;;0.43;100.00
49473;BME280;73594;50.944;6.950;2023-12-07T03:05:49;101557.50;;;0.45;100.00
49473;BME280;73594;50.944;6.950;2023-12-07T03:08:14;101564.78;;;0.51;100.00
49473;BME280;73594;50.944;6.950;2023-12-07T03:10:40;101573.56;;;0.59;100.00
49473;BME280;73594;50.944;6.950;2023-12-07T03:13:05;101565.91;;;0.65;100.00
49473;BME280;73594;50.944;6.950;2023-12-07T03:15:30;101565.22;;;0.71;100.00
49473;BME280;73594;50.944;6.950;2023-12-07T03:17:56;101555.91;;;0.75;100.00
49473;BME280;73594;50.944;6.950;2023-12-07T03:20:21;101557.88;;;0.81;100.00
49473;BME280;73594;50.944;6.950;2023-12-07T03:22:46;101554.88;;;0.84;100.00
49473;BME280;73594;50.944;6.950;2023-12-07T03:25:12;101548.84;;;0.90;100.00
49473;BME280;73594;50.944;6.950;2023-12-07T03:27:37;101563.47;;;0.94;100.00
49473;BME280;73594;50.944;6.950;2023-12-07T03:30:03;101560.63;;;0.96;100.00
49473;BME280;73594;50.944;6.950;2023-12-07T03:32:28;101566.09;;;1.02;100.00
49473;BME280;73594;50.944;6.950;2023-12-07T03:34:54;101568.22;;;1.07;100.00
49473;BME280;73594;50.944;6.950;2023-12-07T03:37:19;101568.56;;;1.12;100.00
49473;BME280;73594;50.944;6.950;2023-12-07T03:39:44;101561.69;;;1.17;100.00
49473;BME280;73594;50.944;6.950;2023-12-07T03:42:10;101557.69;;;1.21;100.00
49473;BME280;73594;50.944;6.950;2023-12-07T03:44:35;101556.97;;;1.28;100.00
49473;BME280;73594;50.944;6.950;2023-12-07T03:47:01;101549.28;;;1.33;100.00
49473;BME280;73594;50.944;6.950;2023-12-07T03:49:26;101555.91;;;1.37;100.00
49473;BME280;73594;50.944;6.950;2023-12-07T03:51:51;101555.56;;;1.40;100.00
49473;BME280;73594;50.944;6.950;2023-12-07T03:54:19;101554.38;;;1.42;100.00
49473;BME280;73594;50.944;6.950;2023-12-07T03:56:45;101559.34;;;1.45;100.00
49473;BME280;73594;50.944;6.950;2023-12-07T03:59:10;101561.66;;;1.48;100.00
49473;BME280;73594;50.944;6.950;2023-12-07T04:01:36;101560.69;;;1.49;100.00
49473;BME280;73594;50.944;6.950;2023-12-07T04:04:01;101564.00;;;1.51;100.00
49473;BME280;73594;50.944;6.950;2023-12-07T04:06:27;101559.31;;;1.53;100.00
49473;BME280;73594;50.944;6.950;2023-12-07T04:08:52;101562.81;;;1.54;100.00
49473;BME280;73594;50.944;6.950;2023-12-07T04:11:18;101559.13;;;1.55;100.00
49473;BME280;73594;50.944;6.950;2023-12-07T04:13:43;101554.63;;;1.55;100.00
49473;BME280;73594;50.944;6.950;2023-12-07T04:16:09;101554.47;;;1.57;100.00
49473;BME280;73594;50.944;6.950;2023-12-07T04:18:35;101555.09;;;1.59;100.00
49473;BME280;73594;50.944;6.950;2023-12-07T04:21:01;101551.44;;;1.60;100.00
49473;BME280;73594;50.944;6.950;2023-12-07T04:23:29;101551.25;;;1.62;100.00
49473;BME280;73594;50.944;6.950;2023-12-07T04:25:54;101555.75;;;1.61;100.00
49473;BME280;73594;50.944;6.950;2023-12-07T04:28:20;101560.44;;;1.59;100.00
49473;BME280;73594;50.944;6.950;2023-12-07T04:30:45;101563.47;;;1.56;100.00
49473;BME280;73594;50.944;6.950;2023-12-07T04:33:11;101558.50;;;1.53;100.00
49473;BME280;73594;50.944;6.950;2023-12-07T04:35:36;101558.50;;;1.45;100.00
49473;BME280;73594;50.944;6.950;2023-12-07T04:38:02;101566.97;;;1.48;100.00
49473;BME280;73594;50.944;6.950;2023-12-07T04:40:27;101561.84;;;1.47;100.00
49473;BME280;73594;50.944;6.950;2023-12-07T04:42:52;101568.81;;;1.48;100.00
49473;BME280;73594;50.944;6.950;2023-12-07T04:45:18;101572.81;;;1.52;100.00
49473;BME280;73594;50.944;6.950;2023-12-07T04:47:44;101579.63;;;1.54;100.00
49473;BME280;73594;50.944;6.950;2023-12-07T04:50:10;101576.41;;;1.59;100.00
49473;BME280;73594;50.944;6.950;2023-12-07T04:52:35;101576.06;;;1.62;100.00
49473;BME280;73594;50.944;6.950;2023-12-07T04:55:01;101580.03;;;1.66;100.00
49473;BME280;73594;50.944;6.950;2023-12-07T04:57:26;101583.81;;;1.72;100.00
49473;BME280;73594;50.944;6.950;2023-12-07T04:59:51;101586.94;;;1.75;100.00
49473;BME280;73594;50.944;6.950;2023-12-07T05:02:17;101591.94;;;1.78;100.00
49473;BME280;73594;50.944;6.950;2023-12-07T05:04:43;101599.56;;;1.81;100.00
49473;BME280;73594;50.944;6.950;2023-12-07T05:07:08;101597.72;;;1.82;100.00
49473;BME280;73594;50.944;6.950;2023-12-07T05:09:34;101593.03;;;1.84;100.00
49473;BME280;73594;50.944;6.950;2023-12-07T05:11:59;101593.88;;;1.84;100.00
49473;BME280;73594;50.944;6.950;2023-12-07T05:14:25;101592.88;;;1.85;100.00
49473;BME280;73594;50.944;6.950;2023-12-07T05:16:50;101589.69;;;1.90;100.00
49473;BME280;73594;50.944;6.950;2023-12-07T05:19:23;101594.19;;;1.90;100.00
49473;BME280;73594;50.944;6.950;2023-12-07T05:21:49;101600.19;;;1.92;100.00
49473;BME280;73594;50.944;6.950;2023-12-07T05:24:15;101595.69;;;1.92;100.00
49473;BME280;73594;50.944;6.950;2023-12-07T05:26:41;101606.16;;;1.94;100.00
49473;BME280;73594;50.944;6.950;2023-12-07T05:29:07;101601.84;;;1.93;100.00
49473;BME280;73594;50.944;6.950;2023-12-07T05:31:32;101600.19;;;1.92;100.00
49473;BME280;73594;50.944;6.950;2023-12-07T05:33:58;101603.84;;;1.91;100.00
49473;BME280;73594;50.944;6.950;2023-12-07T05:36:23;101604.88;;;1.90;100.00
49473;BME280;73594;50.944;6.950;2023-12-07T05:38:50;101614.19;;;1.85;100.00
49473;BME280;73594;50.944;6.950;2023-12-07T05:41:15;101617.03;;;1.84;100.00
49473;BME280;73594;50.944;6.950;2023-12-07T05:43:41;101606.91;;;1.79;100.00
49473;BME280;73594;50.944;6.950;2023-12-07T05:46:07;101605.63;;;1.75;100.00
49473;BME280;73594;50.944;6.950;2023-12-07T05:48:32;101610.28;;;1.73;100.00
49473;BME280;73594;50.944;6.950;2023-12-07T05:50:58;101604.66;;;1.68;100.00
49473;BME280;73594;50.944;6.950;2023-12-07T05:53:24;101600.69;;;1.64;100.00
49473;BME280;73594;50.944;6.950;2023-12-07T05:55:49;101604.38;;;1.63;100.00
49473;BME280;73594;50.944;6.950;2023-12-07T05:58:17;101599.41;;;1.60;100.00
49473;BME280;73594;50.944;6.950;2023-12-07T06:00:43;101598.75;;;1.58;100.00
49473;BME280;73594;50.944;6.950;2023-12-07T06:03:09;101612.44;;;1.55;100.00
49473;BME280;73594;50.944;6.950;2023-12-07T06:05:37;101603.78;;;1.53;100.00
49473;BME280;73594;50.944;6.950;2023-12-07T06:08:02;101596.78;;;1.52;100.00
49473;BME280;73594;50.944;6.950;2023-12-07T06:10:29;101597.16;;;1.49;100.00
49473;BME280;73594;50.944;6.950;2023-12-07T06:12:54;101593.97;;;1.45;100.00
49473;BME280;73594;50.944;6.950;2023-12-07T06:15:22;101598.84;;;1.42;100.00
49473;BME280;73594;50.944;6.950;2023-12-07T06:17:47;101588.34;;;1.40;100.00
49473;BME280;73594;50.944;6.950;2023-12-07T06:20:13;101592.38;;;1.36;100.00
49473;BME280;73594;50.944;6.950;2023-12-07T06:22:39;101587.22;;;1.35;100.00
49473;BME280;73594;50.944;6.950;2023-12-07T06:25:05;101575.25;;;1.31;100.00
49473;BME280;73594;50.944;6.950;2023-12-07T06:27:31;101577.44;;;1.27;100.00
49473;BME280;73594;50.944;6.950;2023-12-07T06:29:59;101580.28;;;1.25;100.00
49473;BME280;73594;50.944;6.950;2023-12-07T06:32:24;101578.16;;;1.21;100.00
49473;BME280;73594;50.944;6.950;2023-12-07T06:34:50;101581.16;;;1.18;100.00
49473;BME280;73594;50.944;6.950;2023-12-07T06:37:17;101578.84;;;1.15;100.00
49473;BME280;73594;50.944;6.950;2023-12-07T06:39:44;101580.03;;;1.12;100.00
49473;BME280;73594;50.944;6.950;2023-12-07T06:42:09;101576.69;;;1.10;100.00
49473;BME280;73594;50.944;6.950;2023-12-07T06:44:35;101579.53;;;1.09;100.00
49473;BME280;73594;50.944;6.950;2023-12-07T06:47:00;101586.03;;;1.06;100.00
49473;BME280;73594;50.944;6.950;2023-12-07T06:49:28;101577.56;;;1.03;100.00
49473;BME280;73594;50.944;6.950;2023-12-07T06:51:54;101590.06;;;1.02;100.00
49473;BME280;73594;50.944;6.950;2023-12-07T06:54:19;101574.44;;;0.99;100.00
49473;BME280;73594;50.944;6.950;2023-12-07T06:56:44;101572.28;;;0.94;100.00
49473;BME280;73594;50.944;6.950;2023-12-07T06:59:11;101575.47;;;0.90;100.00
49473;BME280;73594;50.944;6.950;2023-12-07T07:01:36;101579.31;;;0.87;100.00
49473;BME280;73594;50.944;6.950;2023-12-07T07:04:03;101576.16;;;0.84;100.00
49473;BME280;73594;50.944;6.950;2023-12-07T07:06:29;101583.50;;;0.82;100.00
49473;BME280;73594;50.944;6.950;2023-12-07T07:08:55;101575.84;;;0.79;100.00
49473;BME280;73594;50.944;6.950;2023-12-07T07:11:20;101570.88;;;0.76;100.00
49473;BME280;73594;50.944;6.950;2023-12-07T07:13:45;101578.03;;;0.75;100.00
49473;BME280;73594;50.944;6.950;2023-12-07T07:16:11;101577.34;;;0.73;100.00
49473;BME280;73594;50.944;6.950;2023-12-07T07:18:39;101567.03;;;0.70;100.00
49473;BME280;73594;50.944;6.950;2023-12-07T07:21:06;101573.38;;;0.69;100.00
49473;BME280;73594;50.944;6.950;2023-12-07T07:23:31;101580.69;;;0.67;100.00
49473;BME280;73594;50.944;6.950;2023-12-07T07:25:56;101575.72;;;0.64;100.00
49473;BME280;73594;50.944;6.950;2023-12-07T07:28:22;101581.69;;;0.66;100.00
49473;BME280;73594;50.944;6.950;2023-12-07T07:30:47;101585.53;;;0.63;100.00
49473;BME280;73594;50.944;6.950;2023-12-07T07:33:13;101578.38;;;0.64;100.00
49473;BME280;73594;50.944;6.950;2023-12-07T07:35:38;101583.53;;;0.66;100.00
49473;BME280;73594;50.944;6.950;2023-12-07T07:38:03;101573.22;;;0.62;100.00
49473;BME280;73594;50.944;6.950;2023-12-07T07:40:28;101581.22;;;0.62;100.00
49473;BME280;73594;50.944;6.950;2023-12-07T07:42:54;101588.19;;;0.63;100.00
49473;BME280;73594;50.944;6.950;2023-12-07T07:45:19;101578.56;;;0.62;100.00
49473;BME280;73594;50.944;6.950;2023-12-07T07:47:45;101581.22;;;0.62;100.00
49473;BME280;73594;50.944;6.950;2023-12-07T07:50:10;101576.25;;;0.59;100.00
49473;BME280;73594;50.944;6.950;2023-12-07T07:52:36;101574.41;;;0.60;100.00
49473;BME280;73594;50.944;6.950;2023-12-07T07:55:05;101575.41;;;0.59;100.00
49473;BME280;73594;50.944;6.950;2023-12-07T07:57:30;101578.25;;;0.57;100.00
49473;BME280;73594;50.944;6.950;2023-12-07T07:59:57;101579.25;;;0.56;100.00
49473;BME280;73594;50.944;6.950;2023-12-07T08:02:23;101576.75;;;0.55;100.00
49473;BME280;73594;50.944;6.950;2023-12-07T08:04:49;101579.59;;;0.53;100.00
49473;BME280;73594;50.944;6.950;2023-12-07T08:07:16;101579.75;;;0.52;100.00
49473;BME280;73594;50.944;6.950;2023-12-07T08:09:42;101574.59;;;0.50;100.00
49473;BME280;73594;50.944;6.950;2023-12-07T08:12:07;101582.59;;;0.50;100.00
49473;BME280;73594;50.944;6.950;2023-12-07T08:14:35;101578.28;;;0.49;100.00
49473;BME280;73594;50.944;6.950;2023-12-07T08:17:01;101587.25;;;0.48;100.00
49473;BME280;73594;50.944;6.950;2023-12-07T08:19:26;101589.91;;;0.48;100.00
49473;BME280;73594;50.944;6.950;2023-12-07T08:21:52;101590.75;;;0.49;100.00
49473;BME280;73594;50.944;6.950;2023-12-07T08:24:17;101590.56;;;0.50;100.00
49473;BME280;73594;50.944;6.950;2023-12-07T08:26:43;101586.91;;;0.51;100.00
49473;BME280;73594;50.944;6.950;2023-12-07T08:29:08;101582.59;;;0.50;100.00
49473;BME280;73594;50.944;6.950;2023-12-07T08:31:33;101586.91;;;0.51;100.00
49473;BME280;73594;50.944;6.950;2023-12-07T08:33:59;101584.06;;;0.53;100.00
49473;BME280;73594;50.944;6.950;2023-12-07T08:36:26;101579.59;;;0.53;100.00
49473;BME280;73594;50.944;6.950;2023-12-07T08:38:51;101592.72;;;0.55;100.00
49473;BME280;73594;50.944;6.950;2023-12-07T08:41:17;101599.53;;;0.57;100.00
49473;BME280;73594;50.944;6.950;2023-12-07T08:43:42;101601.00;;;0.60;100.00
49473;BME280;73594;50.944;6.950;2023-12-07T08:46:08;101606.00;;;0.63;100.00
49473;BME280;73594;50.944;6.950;2023-12-07T08:48:33;101604.16;;;0.63;100.00
49473;BME280;73594;50.944;6.950;2023-12-07T08:50:59;101604.00;;;0.65;100.00
49473;BME280;73594;50.944;6.950;2023-12-07T08:53:24;101601.97;;;0.67;100.00
49473;BME280;73594;50.944;6.950;2023-12-07T08:55:51;101599.50;;;0.66;100.00
49473;BME280;73594;50.944;6.950;2023-12-07T08:58:17;101602.81;;;0.68;100.00
49473;BME280;73594;50.944;6.950;2023-12-07T09:00:42;101593.81;;;0.69;100.00
49473;BME280;73594;50.944;6.950;2023-12-07T09:03:08;101595.50;;;0.70;100.00
49473;BME280;73594;50.944;6.950;2023-12-07T09:05:34;101605.63;;;0.74;100.00
49473;BME280;73594;50.944;6.950;2023-12-07T09:07:59;101604.47;;;0.77;100.00
49473;BME280;73594;50.944;6.950;2023-12-07T09:10:25;101601.81;;;0.77;100.00
49473;BME280;73594;50.944;6.950;2023-12-07T09:12:50;101608.78;;;0.78;100.00
49473;BME280;73594;50.944;6.950;2023-12-07T09:15:15;101603.13;;;0.81;100.00
49473;BME280;73594;50.944;6.950;2023-12-07T09:17:41;101605.78;;;0.81;100.00
49473;BME280;73594;50.944;6.950;2023-12-07T09:20:08;101602.78;;;0.84;100.00
49473;BME280;73594;50.944;6.950;2023-12-07T09:22:44;101594.09;;;0.90;100.00
49473;BME280;73594;50.944;6.950;2023-12-07T09:25:10;101591.28;;;0.91;100.00
49473;BME280;73594;50.944;6.950;2023-12-07T09:27:37;101588.78;;;0.90;100.00
49473;BME280;73594;50.944;6.950;2023-12-07T09:30:07;101582.44;;;0.91;100.00
49473;BME280;73594;50.944;6.950;2023-12-07T09:32:36;101585.41;;;0.96;100.00
49473;BME280;73594;50.944;6.950;2023-12-07T09:35:07;101591.56;;;0.97;100.00
49473;BME280;73594;50.944;6.950;2023-12-07T09:37:33;101587.25;;;0.96;100.00
49473;BME280;73594;50.944;6.950;2023-12-07T09:39:59;101593.22;;;0.98;100.00
49473;BME280;73594;50.944;6.950;2023-12-07T09:42:25;101601.03;;;0.99;100.00
49473;BME280;73594;50.944;6.950;2023-12-07T09:44:50;101601.03;;;0.99;100.00
49473;BME280;73594;50.944;6.950;2023-12-07T09:47:16;101608.69;;;1.02;100.00
49473;BME280;73594;50.944;6.950;2023-12-07T09:49:42;101598.69;;;1.04;100.00
49473;BME280;73594;50.944;6.950;2023-12-07T09:52:08;101585.03;;;1.07;100.00
49473;BME280;73594;50.944;6.950;2023-12-07T09:54:33;101576.22;;;1.07;100.00
49473;BME280;73594;50.944;6.950;2023-12-07T09:57:00;101574.22;;;1.09;100.00
49473;BME280;73594;50.944;6.950;2023-12-07T09:59:26;101575.88;;;1.10;100.00
49473;BME280;73594;50.944;6.950;2023-12-07T10:01:51;101581.00;;;1.11;100.00
49473;BME280;73594;50.944;6.950;2023-12-07T10:04:19;101586.19;;;1.13;100.00
49473;BME280;73594;50.944;6.950;2023-12-07T10:06:45;101587.84;;;1.14;100.00
49473;BME280;73594;50.944;6.950;2023-12-07T10:09:11;101588.34;;;1.17;100.00
49473;BME280;73594;50.944;6.950;2023-12-07T10:11:37;101584.31;;;1.21;100.00
49473;BME280;73594;50.944;6.950;2023-12-07T10:14:04;101587.63;;;1.23;100.00
49473;BME280;73594;50.944;6.950;2023-12-07T10:16:30;101581.94;;;1.27;100.00
49473;BME280;73594;50.944;6.950;2023-12-07T10:19:15;101578.28;;;1.28;100.00
49473;BME280;73594;50.944;6.950;2023-12-07T10:21:44;101570.13;;;1.29;100.00
49473;BME280;73594;50.944;6.950;2023-12-07T10:24:10;101564.63;;;1.31;100.00
49473;BME280;73594;50.944;6.950;2023-12-07T10:26:36;101557.44;;;1.31;100.00
49473;BME280;73594;50.944;6.950;2023-12-07T10:29:04;101561.59;;;1.34;100.00
49473;BME280;73594;50.944;6.950;2023-12-07T10:31:30;101555.72;;;1.38;100.00
49473;BME280;73594;50.944;6.950;2023-12-07T10:33:56;101553.53;;;1.42;100.00
49473;BME280;73594;50.944;6.950;2023-12-07T10:36:22;101554.00;;;1.45;100.00
49473;BME280;73594;50.944;6.950;2023-12-07T10:38:47;101544.97;;;1.54;100.00
49473;BME280;73594;50.944;6.950;2023-12-07T10:41:16;101529.47;;;1.58;100.00
49473;BME280;73594;50.944;6.950;2023-12-07T10:43:43;101525.63;;;1.61;100.00
49473;BME280;73594;50.944;6.950;2023-12-07T10:46:14;101519.56;;;1.67;100.00
49473;BME280;73594;50.944;6.950;2023-12-07T10:48:44;101513.41;;;1.66;100.00
49473;BME280;73594;50.944;6.950;2023-12-07T10:51:10;101501.72;;;1.67;100.00
49473;BME280;73594;50.944;6.950;2023-12-07T10:53:41;101492.72;;;1.68;100.00
49473;BME280;73594;50.944;6.950;2023-12-07T10:56:16;101490.34;;;1.73;100.00
49473;BME280;73594;50.944;6.950;2023-12-07T10:58:47;101496.31;;;1.75;100.00
49473;BME280;73594;50.944;6.950;2023-12-07T11:01:15;101496.97;;;1.77;100.00
49473;BME280;73594;50.944;6.950;2023-12-07T11:03:43;101479.97;;;1.78;100.00
49473;BME280;73594;50.944;6.950;2023-12-07T11:06:08;101470.97;;;1.79;100.00
49473;BME280;73594;50.944;6.950;2023-12-07T11:08:46;101460.94;;;1.81;100.00
49473;BME280;73594;50.944;6.950;2023-12-07T11:11:24;101460.59;;;1.84;100.00
49473;BME280;73594;50.944;6.950;2023-12-07T11:13:58;101459.25;;;1.88;100.00
49473;BME280;73594;50.944;6.950;2023-12-07T11:16:35;101452.34;;;1.94;100.00
49473;BME280;73594;50.944;6.950;2023-12-07T11:19:02;101443.78;;;1.99;100.00
49473;BME280;73594;50.944;6.950;2023-12-07T11:21:28;101434.78;;;2.00;100.00
49473;BME280;73594;50.944;6.950;2023-12-07T11:23:54;101437.09;;;2.03;100.00
49473;BME280;73594;50.944;6.950;2023-12-07T11:26:23;101437.16;;;2.09;100.00
49473;BME280;73594;50.944;6.950;2023-12-07T11:28:49;101437.53;;;2.21;100.00
49473;BME280;73594;50.944;6.950;2023-12-07T11:31:15;101431.47;;;2.27;100.00
49473;BME280;73594;50.944;6.950;2023-12-07T11:33:41;101425.78;;;2.30;100.00
49473;BME280;73594;50.944;6.950;2023-12-07T11:36:09;101418.47;;;2.39;100.00
49473;BME280;73594;50.944;6.950;2023-12-07T11:38:37;101416.00;;;2.37;100.00
49473;BME280;73594;50.944;6.950;2023-12-07T11:41:03;101413.72;;;2.34;100.00
49473;BME280;73594;50.944;6.950;2023-12-07T11:46:03;101399.47;;;2.27;100.00
49473;BME280;73594;50.944;6.950;2023-12-07T11:48:29;101396.97;;;2.26;100.00
49473;BME280;73594;50.944;6.950;2023-12-07T11:51:04;101398.00;;;2.25;100.00
49473;BME280;73594;50.944;6.950;2023-12-07T11:53:31;101389.16;;;2.24;100.00
49473;BME280;73594;50.944;6.950;2023-12-07T11:56:08;101395.97;;;2.27;100.00
49473;BME280;73594;50.944;6.950;2023-12-07T11:58:36;101382.81;;;2.25;100.00
49473;BME280;73594;50.944;6.950;2023-12-07T12:01:02;101374.81;;;2.25;100.00
49473;BME280;73594;50.944;6.950;2023-12-07T12:03:29;101381.81;;;2.26;100.00
49473;BME280;73594;50.944;6.950;2023-12-07T12:05:55;101384.94;;;2.30;100.00
49473;BME280;73594;50.944;6.950;2023-12-07T12:08:21;101385.56;;;2.32;100.00
49473;BME280;73594;50.944;6.950;2023-12-07T12:10:48;101383.91;;;2.31;100.00
49473;BME280;73594;50.944;6.950;2023-12-07T12:13:15;101382.72;;;2.33;100.00
49473;BME280;73594;50.944;6.950;2023-12-07T12:15:41;101375.78;;;2.39;100.00
49473;BME280;73594;50.944;6.950;2023-12-07T12:18:08;101370.47;;;2.39;100.00
49473;BME280;73594;50.944;6.950;2023-12-07T12:20:34;101378.28;;;2.40;100.00
49473;BME280;73594;50.944;6.950;2023-12-07T12:22:59;101388.13;;;2.40;100.00
49473;BME280;73594;50.944;6.950;2023-12-07T12:25:30;101381.38;;;2.44;100.00
49473;BME280;73594;50.944;6.950;2023-12-07T12:28:02;101382.84;;;2.46;99.47
49473;BME280;73594;50.944;6.950;2023-12-07T12:30:29;101373.19;;;2.45;99.77
49473;BME280;73594;50.944;6.950;2023-12-07T12:32:55;101367.03;;;2.45;100.00
49473;BME280;73594;50.944;6.950;2023-12-07T12:35:22;101372.81;;;2.48;100.00
49473;BME280;73594;50.944;6.950;2023-12-07T12:37:48;101361.75;;;2.51;100.00
49473;BME280;73594;50.944;6.950;2023-12-07T12:40:22;101342.72;;;2.55;99.30
49473;BME280;73594;50.944;6.950;2023-12-07T12:42:50;101345.81;;;2.58;99.85
49473;BME280;73594;50.944;6.950;2023-12-07T12:45:17;101342.97;;;2.60;100.00
49473;BME280;73594;50.944;6.950;2023-12-07T12:47:47;101329.47;;;2.61;100.00
49473;BME280;73594;50.944;6.950;2023-12-07T12:50:35;101327.63;;;2.62;100.00
49473;BME280;73594;50.944;6.950;2023-12-07T12:53:03;101323.94;;;2.63;100.00
49473;BME280;73594;50.944;6.950;2023-12-07T12:55:39;101315.72;;;2.64;100.00